sensor_id;sensor_type;location;lat;lon;timestamp;temperature;humidity
13684;DHT22;6914;53.552;9.908;2023-05-10T00:01:55;13.80;96.70
13684;DHT22;6914;53.552;9.908;2023-05-10T00:04:24;13.90;99.10
13684;DHT22;6914;53.552;9.908;2023-05-10T00:06:54;13.80;99.90
13684;DHT22;6914;53.552;9.908;2023-05-10T00:09:20;14.50;99.90
13684;DHT22;6914;53.552;9.908;2023-05-10T00:11:47;13.80;99.90
13684;DHT22;6914;53.552;9.908;2023-05-10T00:14:14;13.80;99.90
13684;DHT22;6914;53.552;9.908;2023-05-10T00:16:41;13.80;99.90
13684;DHT22;6914;53.552;9.908;2023-05-10T00:19:08;13.60;99.90
13684;DHT22;6914;53.552;9.908;2023-05-10T00:21:34;13.70;99.90
13684;DHT22;6914;53.552;9.908;2023-05-10T00:24:04;13.50;99.90
13684;DHT22;6914;53.552;9.908;2023-05-10T00:26:31;13.70;99.90
13684;DHT22;6914;53.552;9.908;2023-05-10T00:28:58;13.60;99.90
13684;DHT22;6914;53.552;9.908;2023-05-10T00:31:28;13.60;99.90
13684;DHT22;6914;53.552;9.908;2023-05-10T00:33:55;13.50;99.90
13684;DHT22;6914;53.552;9.908;2023-05-10T00:36:25;13.50;99.90
13684;DHT22;6914;53.552;9.908;2023-05-10T00:38:53;14.00;99.90
13684;DHT22;6914;53.552;9.908;2023-05-10T00:41:21;13.40;99.90
13684;DHT22;6914;53.552;9.908;2023-05-10T00:43:48;13.50;99.90
13684;DHT22;6914;53.552;9.908;2023-05-10T00:46:15;13.40;99.90
13684;DHT22;6914;53.552;9.908;2023-05-10T00:48:44;13.70;99.90
13684;DHT22;6914;53.552;9.908;2023-05-10T00:51:12;13.10;99.90
13684;DHT22;6914;53.552;9.908;2023-05-10T00:53:38;13.20;99.90
13684;DHT22;6914;53.552;9.908;2023-05-10T00:56:05;13.60;99.90
13684;DHT22;6914;53.552;9.908;2023-05-10T00:58:34;13.20;99.90
13684;DHT22;6914;53.552;9.908;2023-05-10T01:01:03;13.20;99.90
13684;DHT22;6914;53.552;9.908;2023-05-10T01:03:31;12.70;99.90
13684;DHT22;6914;53.552;9.908;2023-05-10T01:05:59;12.70;99.90
13684;DHT22;6914;53.552;9.908;2023-05-10T01:08:29;13.10;99.90
13684;DHT22;6914;53.552;9.908;2023-05-10T01:10:56;13.20;99.90
13684;DHT22;6914;53.552;9.908;2023-05-10T01:13:31;12.30;99.90
13684;DHT22;6914;53.552;9.908;2023-05-10T01:16:03;13.10;99.90
13684;DHT22;6914;53.552;9.908;2023-05-10T01:18:30;12.80;99.90
13684;DHT22;6914;53.552;9.908;2023-05-10T01:21:07;12.90;99.90
13684;DHT22;6914;53.552;9.908;2023-05-10T01:23:50;12.50;99.90
13684;DHT22;6914;53.552;9.908;2023-05-10T01:26:47;12.60;99.90
13684;DHT22;6914;53.552;9.908;2023-05-10T01:29:46;13.00;99.90
13684;DHT22;6914;53.552;9.908;2023-05-10T01:32:27;12.90;99.90
13684;DHT22;6914;53.552;9.908;2023-05-10T01:35:00;12.80;99.90
13684;DHT22;6914;53.552;9.908;2023-05-10T01:37:34;11.90;99.90
13684;DHT22;6914;53.552;9.908;2023-05-10T01:40:10;12.70;99.90
13684;DHT22;6914;53.552;9.908;2023-05-10T01:42:43;14.70;99.90
13684;DHT22;6914;53.552;9.908;2023-05-10T01:45:17;13.30;99.90
13684;DHT22;6914;53.552;9.908;2023-05-10T01:47:50;12.60;99.90
13684;DHT22;6914;53.552;9.908;2023-05-10T01:50:24;13.20;99.90
13684;DHT22;6914;53.552;9.908;2023-05-10T01:52:56;12.60;99.90
13684;DHT22;6914;53.552;9.908;2023-05-10T01:55:27;12.60;99.90
13684;DHT22;6914;53.552;9.908;2023-05-10T01:58:01;12.70;99.90
13684;DHT22;6914;53.552;9.908;2023-05-10T02:00:29;12.50;99.90
13684;DHT22;6914;53.552;9.908;2023-05-10T02:03:00;12.30;99.90
13684;DHT22;6914;53.552;9.908;2023-05-10T02:05:30;11.70;99.90
13684;DHT22;6914;53.552;9.908;2023-05-10T02:07:59;12.50;99.90
13684;DHT22;6914;53.552;9.908;2023-05-10T02:10:30;12.70;99.90
13684;DHT22;6914;53.552;9.908;2023-05-10T02:12:59;12.60;99.90
13684;DHT22;6914;53.552;9.908;2023-05-10T02:15:27;12.40;99.90
13684;DHT22;6914;53.552;9.908;2023-05-10T02:17:55;12.40;99.90
13684;DHT22;6914;53.552;9.908;2023-05-10T02:20:25;13.10;99.90
13684;DHT22;6914;53.552;9.908;2023-05-10T02:22:54;12.50;99.90
13684;DHT22;6914;53.552;9.908;2023-05-10T02:25:23;12.50;99.90
13684;DHT22;6914;53.552;9.908;2023-05-10T02:27:51;12.50;99.90
13684;DHT22;6914;53.552;9.908;2023-05-10T02:30:20;12.00;99.90
13684;DHT22;6914;53.552;9.908;2023-05-10T02:32:49;12.20;99.90
13684;DHT22;6914;53.552;9.908;2023-05-10T02:35:16;12.40;99.90
13684;DHT22;6914;53.552;9.908;2023-05-10T02:37:45;12.40;99.90
13684;DHT22;6914;53.552;9.908;2023-05-10T02:40:14;13.30;99.90
13684;DHT22;6914;53.552;9.908;2023-05-10T02:42:43;13.30;99.90
13684;DHT22;6914;53.552;9.908;2023-05-10T02:45:15;12.70;99.90
13684;DHT22;6914;53.552;9.908;2023-05-10T02:47:43;11.70;99.90
13684;DHT22;6914;53.552;9.908;2023-05-10T02:50:10;12.20;99.90
13684;DHT22;6914;53.552;9.908;2023-05-10T02:52:40;12.20;99.90
13684;DHT22;6914;53.552;9.908;2023-05-10T02:55:14;12.20;99.90
13684;DHT22;6914;53.552;9.908;2023-05-10T02:57:46;12.20;99.90
13684;DHT22;6914;53.552;9.908;2023-05-10T03:00:15;11.40;99.90
13684;DHT22;6914;53.552;9.908;2023-05-10T03:02:42;12.20;99.90
13684;DHT22;6914;53.552;9.908;2023-05-10T03:05:09;12.00;99.90
13684;DHT22;6914;53.552;9.908;2023-05-10T03:07:35;11.60;99.90
13684;DHT22;6914;53.552;9.908;2023-05-10T03:10:05;12.00;99.90
13684;DHT22;6914;53.552;9.908;2023-05-10T03:12:50;12.30;99.90
13684;DHT22;6914;53.552;9.908;2023-05-10T03:15:28;12.50;99.90
13684;DHT22;6914;53.552;9.908;2023-05-10T03:18:03;12.00;99.90
13684;DHT22;6914;53.552;9.908;2023-05-10T03:20:33;11.90;99.90
13684;DHT22;6914;53.552;9.908;2023-05-10T03:23:04;12.00;99.90
13684;DHT22;6914;53.552;9.908;2023-05-10T03:25:34;11.60;99.90
13684;DHT22;6914;53.552;9.908;2023-05-10T03:28:06;11.90;99.90
13684;DHT22;6914;53.552;9.908;2023-05-10T03:30:33;12.00;99.90
13684;DHT22;6914;53.552;9.908;2023-05-10T03:33:05;11.10;99.90
13684;DHT22;6914;53.552;9.908;2023-05-10T03:35:32;11.90;99.90
13684;DHT22;6914;53.552;9.908;2023-05-10T03:38:02;11.90;99.90
13684;DHT22;6914;53.552;9.908;2023-05-10T03:40:30;11.90;99.90
13684;DHT22;6914;53.552;9.908;2023-05-10T03:42:57;12.00;99.90
13684;DHT22;6914;53.552;9.908;2023-05-10T03:45:26;11.40;99.90
13684;DHT22;6914;53.552;9.908;2023-05-10T03:47:53;11.90;99.90
13684;DHT22;6914;53.552;9.908;2023-05-10T03:50:20;11.90;99.90
13684;DHT22;6914;53.552;9.908;2023-05-10T03:52:47;10.90;99.90
13684;DHT22;6914;53.552;9.908;2023-05-10T03:55:14;11.90;99.90
13684;DHT22;6914;53.552;9.908;2023-05-10T03:57:41;11.80;99.90
13684;DHT22;6914;53.552;9.908;2023-05-10T04:00:10;11.80;99.90
13684;DHT22;6914;53.552;9.908;2023-05-10T04:02:39;11.90;99.90
13684;DHT22;6914;53.552;9.908;2023-05-10T04:05:06;11.70;99.90
13684;DHT22;6914;53.552;9.908;2023-05-10T04:07:33;11.80;99.90
13684;DHT22;6914;53.552;9.908;2023-05-10T04:10:00;12.20;99.90
13684;DHT22;6914;53.552;9.908;2023-05-10T04:12:27;12.10;99.90
13684;DHT22;6914;53.552;9.908;2023-05-10T04:14:54;11.90;99.90
13684;DHT22;6914;53.552;9.908;2023-05-10T04:17:20;11.90;99.90
13684;DHT22;6914;53.552;9.908;2023-05-10T04:19:49;12.00;99.90
13684;DHT22;6914;53.552;9.908;2023-05-10T04:22:18;11.90;99.90
13684;DHT22;6914;53.552;9.908;2023-05-10T04:24:45;11.90;99.90
13684;DHT22;6914;53.552;9.908;2023-05-10T04:27:12;11.90;99.90
13684;DHT22;6914;53.552;9.908;2023-05-10T04:29:39;11.90;99.90
13684;DHT22;6914;53.552;9.908;2023-05-10T04:32:05;11.80;99.90
13684;DHT22;6914;53.552;9.908;2023-05-10T04:34:34;11.90;99.90
13684;DHT22;6914;53.552;9.908;2023-05-10T04:37:03;11.80;99.90
13684;DHT22;6914;53.552;9.908;2023-05-10T04:39:32;11.90;99.90
13684;DHT22;6914;53.552;9.908;2023-05-10T04:42:01;12.00;99.90
13684;DHT22;6914;53.552;9.908;2023-05-10T04:44:32;12.00;99.90
13684;DHT22;6914;53.552;9.908;2023-05-10T04:47:00;11.90;99.90
13684;DHT22;6914;53.552;9.908;2023-05-10T04:49:27;11.90;99.90
13684;DHT22;6914;53.552;9.908;2023-05-10T04:51:55;12.00;99.90
13684;DHT22;6914;53.552;9.908;2023-05-10T04:54:23;12.10;99.90
13684;DHT22;6914;53.552;9.908;2023-05-10T04:56:50;12.60;99.90
13684;DHT22;6914;53.552;9.908;2023-05-10T04:59:17;12.00;99.90
13684;DHT22;6914;53.552;9.908;2023-05-10T05:01:43;12.20;99.90
13684;DHT22;6914;53.552;9.908;2023-05-10T05:04:10;12.20;99.90
13684;DHT22;6914;53.552;9.908;2023-05-10T05:06:37;12.10;99.90
13684;DHT22;6914;53.552;9.908;2023-05-10T05:09:05;12.10;99.90
13684;DHT22;6914;53.552;9.908;2023-05-10T05:11:36;12.40;99.90
13684;DHT22;6914;53.552;9.908;2023-05-10T05:14:03;12.20;99.90
13684;DHT22;6914;53.552;9.908;2023-05-10T05:16:32;12.30;99.90
13684;DHT22;6914;53.552;9.908;2023-05-10T05:18:59;12.40;99.90
13684;DHT22;6914;53.552;9.908;2023-05-10T05:21:26;11.80;99.90
13684;DHT22;6914;53.552;9.908;2023-05-10T05:23:54;12.30;99.90
13684;DHT22;6914;53.552;9.908;2023-05-10T05:26:21;12.40;99.90
13684;DHT22;6914;53.552;9.908;2023-05-10T05:28:49;12.10;99.90
13684;DHT22;6914;53.552;9.908;2023-05-10T05:31:19;12.50;99.90
13684;DHT22;6914;53.552;9.908;2023-05-10T05:33:46;12.80;99.90
13684;DHT22;6914;53.552;9.908;2023-05-10T05:36:13;12.50;99.90
13684;DHT22;6914;53.552;9.908;2023-05-10T05:38:39;12.40;99.90
13684;DHT22;6914;53.552;9.908;2023-05-10T05:41:07;12.60;99.90
13684;DHT22;6914;53.552;9.908;2023-05-10T05:43:34;12.60;99.90
13684;DHT22;6914;53.552;9.908;2023-05-10T05:46:04;12.80;99.90
13684;DHT22;6914;53.552;9.908;2023-05-10T05:48:33;12.80;99.90
13684;DHT22;6914;53.552;9.908;2023-05-10T05:51:00;12.80;99.90
13684;DHT22;6914;53.552;9.908;2023-05-10T05:53:27;12.90;99.90
13684;DHT22;6914;53.552;9.908;2023-05-10T05:55:54;12.50;99.90
13684;DHT22;6914;53.552;9.908;2023-05-10T05:58:22;12.50;99.90
13684;DHT22;6914;53.552;9.908;2023-05-10T06:00:49;13.10;99.90
13684;DHT22;6914;53.552;9.908;2023-05-10T06:03:19;13.10;99.90
13684;DHT22;6914;53.552;9.908;2023-05-10T06:05:46;13.10;99.90
13684;DHT22;6914;53.552;9.908;2023-05-10T06:08:13;13.10;99.90
13684;DHT22;6914;53.552;9.908;2023-05-10T06:10:40;13.20;99.90
13684;DHT22;6914;53.552;9.908;2023-05-10T06:13:07;13.40;99.90
13684;DHT22;6914;53.552;9.908;2023-05-10T06:15:34;13.30;99.90
13684;DHT22;6914;53.552;9.908;2023-05-10T06:18:01;13.40;99.90
13684;DHT22;6914;53.552;9.908;2023-05-10T06:20:30;13.60;99.90
13684;DHT22;6914;53.552;9.908;2023-05-10T06:22:58;13.70;99.90
13684;DHT22;6914;53.552;9.908;2023-05-10T06:25:25;13.50;99.90
13684;DHT22;6914;53.552;9.908;2023-05-10T06:27:51;13.70;99.90
13684;DHT22;6914;53.552;9.908;2023-05-10T06:30:23;14.00;99.90
13684;DHT22;6914;53.552;9.908;2023-05-10T06:32:53;13.80;99.90
13684;DHT22;6914;53.552;9.908;2023-05-10T06:35:20;13.80;99.90
13684;DHT22;6914;53.552;9.908;2023-05-10T06:37:48;14.00;99.90
13684;DHT22;6914;53.552;9.908;2023-05-10T06:40:16;14.10;99.90
13684;DHT22;6914;53.552;9.908;2023-05-10T06:42:43;14.00;99.90
13684;DHT22;6914;53.552;9.908;2023-05-10T06:45:11;13.90;99.90
13684;DHT22;6914;53.552;9.908;2023-05-10T06:47:38;14.10;99.90
13684;DHT22;6914;53.552;9.908;2023-05-10T06:50:11;14.00;99.90
13684;DHT22;6914;53.552;9.908;2023-05-10T06:52:41;14.10;99.90
13684;DHT22;6914;53.552;9.908;2023-05-10T06:55:16;14.20;99.90
13684;DHT22;6914;53.552;9.908;2023-05-10T06:57:43;14.30;99.90
13684;DHT22;6914;53.552;9.908;2023-05-10T07:00:10;14.80;99.90
13684;DHT22;6914;53.552;9.908;2023-05-10T07:02:37;14.50;99.90
13684;DHT22;6914;53.552;9.908;2023-05-10T07:05:06;14.80;99.90
13684;DHT22;6914;53.552;9.908;2023-05-10T07:07:35;15.10;99.90
13684;DHT22;6914;53.552;9.908;2023-05-10T07:10:03;15.00;99.90
13684;DHT22;6914;53.552;9.908;2023-05-10T07:12:35;15.40;99.90
13684;DHT22;6914;53.552;9.908;2023-05-10T07:15:03;15.50;99.90
13684;DHT22;6914;53.552;9.908;2023-05-10T07:17:30;15.80;99.90
13684;DHT22;6914;53.552;9.908;2023-05-10T07:19:58;15.40;99.90
13684;DHT22;6914;53.552;9.908;2023-05-10T07:22:26;15.90;99.90
13684;DHT22;6914;53.552;9.908;2023-05-10T07:24:53;15.60;99.90
13684;DHT22;6914;53.552;9.908;2023-05-10T07:27:20;15.70;99.90
13684;DHT22;6914;53.552;9.908;2023-05-10T07:29:48;15.70;99.90
13684;DHT22;6914;53.552;9.908;2023-05-10T07:32:15;16.10;99.90
13684;DHT22;6914;53.552;9.908;2023-05-10T07:34:43;15.80;99.90
13684;DHT22;6914;53.552;9.908;2023-05-10T07:37:10;15.70;99.90
13684;DHT22;6914;53.552;9.908;2023-05-10T07:39:41;15.50;99.90
13684;DHT22;6914;53.552;9.908;2023-05-10T07:42:07;15.40;99.90
13684;DHT22;6914;53.552;9.908;2023-05-10T07:44:37;15.10;99.90
13684;DHT22;6914;53.552;9.908;2023-05-10T07:47:05;15.80;99.90
13684;DHT22;6914;53.552;9.908;2023-05-10T07:49:32;15.70;99.90
13684;DHT22;6914;53.552;9.908;2023-05-10T07:51:59;15.90;99.90
13684;DHT22;6914;53.552;9.908;2023-05-10T07:54:27;16.00;99.90
13684;DHT22;6914;53.552;9.908;2023-05-10T07:56:55;15.80;99.90
13684;DHT22;6914;53.552;9.908;2023-05-10T07:59:21;15.70;99.90
13684;DHT22;6914;53.552;9.908;2023-05-10T08:01:48;16.10;99.90
13684;DHT22;6914;53.552;9.908;2023-05-10T08:04:16;15.90;99.90
13684;DHT22;6914;53.552;9.908;2023-05-10T08:06:43;16.00;99.90
13684;DHT22;6914;53.552;9.908;2023-05-10T08:09:10;15.90;99.90
13684;DHT22;6914;53.552;9.908;2023-05-10T08:11:39;16.10;99.90
13684;DHT22;6914;53.552;9.908;2023-05-10T08:14:06;16.50;99.90
13684;DHT22;6914;53.552;9.908;2023-05-10T08:16:32;16.30;99.90
13684;DHT22;6914;53.552;9.908;2023-05-10T08:18:59;16.60;99.90
13684;DHT22;6914;53.552;9.908;2023-05-10T08:21:28;16.40;99.90
13684;DHT22;6914;53.552;9.908;2023-05-10T08:23:56;16.50;99.90
13684;DHT22;6914;53.552;9.908;2023-05-10T08:26:24;16.50;99.90
13684;DHT22;6914;53.552;9.908;2023-05-10T08:28:51;16.90;99.90
13684;DHT22;6914;53.552;9.908;2023-05-10T08:31:18;16.80;99.90
13684;DHT22;6914;53.552;9.908;2023-05-10T08:33:45;15.80;99.90
13684;DHT22;6914;53.552;9.908;2023-05-10T08:36:18;16.60;99.90
13684;DHT22;6914;53.552;9.908;2023-05-10T08:38:50;16.70;99.90
13684;DHT22;6914;53.552;9.908;2023-05-10T08:41:20;16.40;99.90
13684;DHT22;6914;53.552;9.908;2023-05-10T08:43:47;17.10;99.90
13684;DHT22;6914;53.552;9.908;2023-05-10T08:46:16;16.50;99.90
13684;DHT22;6914;53.552;9.908;2023-05-10T08:48:44;16.40;99.90
13684;DHT22;6914;53.552;9.908;2023-05-10T08:51:19;16.30;99.90
13684;DHT22;6914;53.552;9.908;2023-05-10T08:53:51;16.60;99.90
13684;DHT22;6914;53.552;9.908;2023-05-10T08:56:18;16.70;99.90
13684;DHT22;6914;53.552;9.908;2023-05-10T08:58:47;16.90;99.90
13684;DHT22;6914;53.552;9.908;2023-05-10T09:01:16;16.90;99.90
13684;DHT22;6914;53.552;9.908;2023-05-10T09:03:46;16.20;99.90
13684;DHT22;6914;53.552;9.908;2023-05-10T09:06:15;16.50;99.90
13684;DHT22;6914;53.552;9.908;2023-05-10T09:08:42;17.20;99.90
13684;DHT22;6914;53.552;9.908;2023-05-10T09:11:16;16.70;99.90
13684;DHT22;6914;53.552;9.908;2023-05-10T09:13:45;17.00;99.90
13684;DHT22;6914;53.552;9.908;2023-05-10T09:16:12;17.00;99.90
13684;DHT22;6914;53.552;9.908;2023-05-10T09:18:41;16.80;99.90
13684;DHT22;6914;53.552;9.908;2023-05-10T09:21:09;16.30;99.90
13684;DHT22;6914;53.552;9.908;2023-05-10T09:23:36;16.30;99.90
13684;DHT22;6914;53.552;9.908;2023-05-10T09:26:03;16.40;99.90
13684;DHT22;6914;53.552;9.908;2023-05-10T09:28:50;16.50;99.90
13684;DHT22;6914;53.552;9.908;2023-05-10T09:31:17;16.40;99.90
13684;DHT22;6914;53.552;9.908;2023-05-10T09:33:45;16.30;99.90
13684;DHT22;6914;53.552;9.908;2023-05-10T09:36:12;15.80;99.90
13684;DHT22;6914;53.552;9.908;2023-05-10T09:38:46;15.70;99.90
13684;DHT22;6914;53.552;9.908;2023-05-10T09:41:18;15.50;99.90
13684;DHT22;6914;53.552;9.908;2023-05-10T09:43:47;15.40;99.90
13684;DHT22;6914;53.552;9.908;2023-05-10T09:46:17;15.40;99.90
13684;DHT22;6914;53.552;9.908;2023-05-10T09:48:46;15.10;99.90
13684;DHT22;6914;53.552;9.908;2023-05-10T09:51:24;15.20;99.90
13684;DHT22;6914;53.552;9.908;2023-05-10T09:54:09;15.00;99.90
13684;DHT22;6914;53.552;9.908;2023-05-10T09:56:37;14.90;99.90
13684;DHT22;6914;53.552;9.908;2023-05-10T09:59:08;14.50;99.90
13684;DHT22;6914;53.552;9.908;2023-05-10T10:01:36;14.60;99.90
13684;DHT22;6914;53.552;9.908;2023-05-10T10:04:04;14.30;99.90
13684;DHT22;6914;53.552;9.908;2023-05-10T10:06:35;14.30;99.90
13684;DHT22;6914;53.552;9.908;2023-05-10T10:09:02;14.30;99.90
13684;DHT22;6914;53.552;9.908;2023-05-10T10:11:29;14.00;99.90
13684;DHT22;6914;53.552;9.908;2023-05-10T10:13:56;14.00;99.90
13684;DHT22;6914;53.552;9.908;2023-05-10T10:16:25;14.10;99.90
13684;DHT22;6914;53.552;9.908;2023-05-10T10:18:53;13.60;99.90
13684;DHT22;6914;53.552;9.908;2023-05-10T10:21:20;13.20;99.90
13684;DHT22;6914;53.552;9.908;2023-05-10T10:23:51;13.30;99.90
13684;DHT22;6914;53.552;9.908;2023-05-10T10:26:21;12.90;99.90
13684;DHT22;6914;53.552;9.908;2023-05-10T10:28:56;13.00;99.90
13684;DHT22;6914;53.552;9.908;2023-05-10T10:31:31;13.10;99.90
13684;DHT22;6914;53.552;9.908;2023-05-10T10:34:05;13.10;99.90
13684;DHT22;6914;53.552;9.908;2023-05-10T10:36:46;13.30;99.90
13684;DHT22;6914;53.552;9.908;2023-05-10T10:39:22;13.20;99.90
13684;DHT22;6914;53.552;9.908;2023-05-10T10:41:56;13.20;99.90
13684;DHT22;6914;53.552;9.908;2023-05-10T10:44:35;13.20;99.90
13684;DHT22;6914;53.552;9.908;2023-05-10T10:47:24;13.20;99.90
13684;DHT22;6914;53.552;9.908;2023-05-10T10:50:06;13.20;99.90
13684;DHT22;6914;53.552;9.908;2023-05-10T10:52:34;13.20;99.90
13684;DHT22;6914;53.552;9.908;2023-05-10T10:55:04;13.10;99.90
13684;DHT22;6914;53.552;9.908;2023-05-10T10:57:33;12.90;99.90
13684;DHT22;6914;53.552;9.908;2023-05-10T11:00:22;12.80;99.90
13684;DHT22;6914;53.552;9.908;2023-05-10T11:02:52;13.00;99.90
13684;DHT22;6914;53.552;9.908;2023-05-10T11:05:41;13.20;99.90
13684;DHT22;6914;53.552;9.908;2023-05-10T11:08:13;13.70;99.90
13684;DHT22;6914;53.552;9.908;2023-05-10T11:10:53;13.00;99.90
13684;DHT22;6914;53.552;9.908;2023-05-10T11:13:28;13.30;99.90
13684;DHT22;6914;53.552;9.908;2023-05-10T11:15:56;13.40;99.90
13684;DHT22;6914;53.552;9.908;2023-05-10T11:18:27;11.80;99.90
13684;DHT22;6914;53.552;9.908;2023-05-10T11:20:57;13.10;99.90
13684;DHT22;6914;53.552;9.908;2023-05-10T11:23:30;13.20;99.90
13684;DHT22;6914;53.552;9.908;2023-05-10T11:25:57;13.20;99.90
13684;DHT22;6914;53.552;9.908;2023-05-10T11:28:26;13.20;99.90
13684;DHT22;6914;53.552;9.908;2023-05-10T11:30:53;13.20;99.90
13684;DHT22;6914;53.552;9.908;2023-05-10T11:33:20;14.00;99.90
13684;DHT22;6914;53.552;9.908;2023-05-10T11:35:49;14.00;99.90
13684;DHT22;6914;53.552;9.908;2023-05-10T11:38:16;13.40;99.90
13684;DHT22;6914;53.552;9.908;2023-05-10T11:40:45;13.50;99.90
13684;DHT22;6914;53.552;9.908;2023-05-10T11:43:12;13.60;99.90
13684;DHT22;6914;53.552;9.908;2023-05-10T11:45:40;13.40;99.90
13684;DHT22;6914;53.552;9.908;2023-05-10T11:48:07;13.40;99.90
13684;DHT22;6914;53.552;9.908;2023-05-10T11:50:35;13.30;99.90
13684;DHT22;6914;53.552;9.908;2023-05-10T11:53:03;13.20;99.90
13684;DHT22;6914;53.552;9.908;2023-05-10T11:55:33;13.00;99.90
13684;DHT22;6914;53.552;9.908;2023-05-10T11:58:01;13.10;99.90
13684;DHT22;6914;53.552;9.908;2023-05-10T12:00:29;13.10;99.90
13684;DHT22;6914;53.552;9.908;2023-05-10T12:02:57;13.20;99.90
13684;DHT22;6914;53.552;9.908;2023-05-10T12:05:25;13.30;99.90
13684;DHT22;6914;53.552;9.908;2023-05-10T12:07:52;12.10;99.90
13684;DHT22;6914;53.552;9.908;2023-05-10T12:10:26;13.60;99.90
13684;DHT22;6914;53.552;9.908;2023-05-10T12:12:53;13.50;99.90
13684;DHT22;6914;53.552;9.908;2023-05-10T12:15:22;13.70;99.90
13684;DHT22;6914;53.552;9.908;2023-05-10T12:17:50;13.70;99.90
13684;DHT22;6914;53.552;9.908;2023-05-10T12:20:23;13.90;99.90
13684;DHT22;6914;53.552;9.908;2023-05-10T12:22:52;13.90;99.90
13684;DHT22;6914;53.552;9.908;2023-05-10T12:25:21;13.90;99.90
13684;DHT22;6914;53.552;9.908;2023-05-10T12:27:51;14.00;99.90
13684;DHT22;6914;53.552;9.908;2023-05-10T12:30:22;14.60;99.90
13684;DHT22;6914;53.552;9.908;2023-05-10T12:32:49;14.10;99.90
13684;DHT22;6914;53.552;9.908;2023-05-10T12:35:16;14.10;99.90
13684;DHT22;6914;53.552;9.908;2023-05-10T12:37:46;14.10;99.90
13684;DHT22;6914;53.552;9.908;2023-05-10T12:40:13;14.10;99.90
13684;DHT22;6914;53.552;9.908;2023-05-10T12:42:40;14.50;99.90
13684;DHT22;6914;53.552;9.908;2023-05-10T12:45:09;14.60;99.90
13684;DHT22;6914;53.552;9.908;2023-05-10T12:47:36;14.50;99.90
13684;DHT22;6914;53.552;9.908;2023-05-10T12:50:04;14.70;99.90
13684;DHT22;6914;53.552;9.908;2023-05-10T12:52:31;14.90;99.90
13684;DHT22;6914;53.552;9.908;2023-05-10T12:54:59;15.00;99.90
13684;DHT22;6914;53.552;9.908;2023-05-10T12:57:26;14.90;99.90
13684;DHT22;6914;53.552;9.908;2023-05-10T12:59:54;14.90;99.90
13684;DHT22;6914;53.552;9.908;2023-05-10T13:02:23;14.80;99.90
13684;DHT22;6914;53.552;9.908;2023-05-10T13:04:50;15.70;99.90
13684;DHT22;6914;53.552;9.908;2023-05-10T13:07:18;14.90;99.90
13684;DHT22;6914;53.552;9.908;2023-05-10T13:09:48;14.80;99.90
13684;DHT22;6914;53.552;9.908;2023-05-10T13:12:15;15.00;99.90
13684;DHT22;6914;53.552;9.908;2023-05-10T13:14:42;15.10;99.90
13684;DHT22;6914;53.552;9.908;2023-05-10T13:17:09;15.10;99.90
13684;DHT22;6914;53.552;9.908;2023-05-10T13:19:37;15.30;99.90
13684;DHT22;6914;53.552;9.908;2023-05-10T13:22:04;15.50;99.90
13684;DHT22;6914;53.552;9.908;2023-05-10T13:24:31;15.40;99.90
13684;DHT22;6914;53.552;9.908;2023-05-10T13:26:58;15.50;99.90
13684;DHT22;6914;53.552;9.908;2023-05-10T13:29:25;15.40;99.90
13684;DHT22;6914;53.552;9.908;2023-05-10T13:31:52;15.70;99.90
13684;DHT22;6914;53.552;9.908;2023-05-10T13:34:19;15.50;99.90
13684;DHT22;6914;53.552;9.908;2023-05-10T13:36:50;15.60;99.90
13684;DHT22;6914;53.552;9.908;2023-05-10T13:39:18;15.70;99.90
13684;DHT22;6914;53.552;9.908;2023-05-10T13:41:48;15.80;99.90
13684;DHT22;6914;53.552;9.908;2023-05-10T13:44:15;15.70;99.90
13684;DHT22;6914;53.552;9.908;2023-05-10T13:46:42;15.70;99.90
13684;DHT22;6914;53.552;9.908;2023-05-10T13:49:10;15.40;99.90
13684;DHT22;6914;53.552;9.908;2023-05-10T13:51:38;15.60;99.90
13684;DHT22;6914;53.552;9.908;2023-05-10T13:54:06;15.50;99.90
13684;DHT22;6914;53.552;9.908;2023-05-10T13:56:33;15.60;99.90
13684;DHT22;6914;53.552;9.908;2023-05-10T13:59:00;15.70;99.90
13684;DHT22;6914;53.552;9.908;2023-05-10T14:01:27;16.70;99.90
13684;DHT22;6914;53.552;9.908;2023-05-10T14:03:54;16.30;99.90
13684;DHT22;6914;53.552;9.908;2023-05-10T14:06:23;16.30;99.90
13684;DHT22;6914;53.552;9.908;2023-05-10T14:08:50;16.50;99.90
13684;DHT22;6914;53.552;9.908;2023-05-10T14:11:29;15.90;99.90
13684;DHT22;6914;53.552;9.908;2023-05-10T14:13:56;16.40;99.90
13684;DHT22;6914;53.552;9.908;2023-05-10T14:16:22;16.60;99.90
13684;DHT22;6914;53.552;9.908;2023-05-10T14:18:49;16.30;99.90
13684;DHT22;6914;53.552;9.908;2023-05-10T14:21:17;16.10;99.90
13684;DHT22;6914;53.552;9.908;2023-05-10T14:23:45;15.90;99.90
13684;DHT22;6914;53.552;9.908;2023-05-10T14:26:22;16.00;99.90
13684;DHT22;6914;53.552;9.908;2023-05-10T14:28:50;15.60;99.90
13684;DHT22;6914;53.552;9.908;2023-05-10T14:31:18;16.20;99.90
13684;DHT22;6914;53.552;9.908;2023-05-10T14:33:48;16.40;99.90
13684;DHT22;6914;53.552;9.908;2023-05-10T14:36:18;16.30;99.90
13684;DHT22;6914;53.552;9.908;2023-05-10T14:38:45;16.30;99.90
13684;DHT22;6914;53.552;9.908;2023-05-10T14:41:12;16.50;99.90
13684;DHT22;6914;53.552;9.908;2023-05-10T14:43:40;16.00;99.90
13684;DHT22;6914;53.552;9.908;2023-05-10T14:46:10;16.00;99.90
13684;DHT22;6914;53.552;9.908;2023-05-10T14:48:36;16.40;99.90
13684;DHT22;6914;53.552;9.908;2023-05-10T14:51:03;16.30;99.90
13684;DHT22;6914;53.552;9.908;2023-05-10T14:53:31;16.30;99.90
13684;DHT22;6914;53.552;9.908;2023-05-10T14:55:58;16.30;99.90
13684;DHT22;6914;53.552;9.908;2023-05-10T14:58:26;15.80;99.90
13684;DHT22;6914;53.552;9.908;2023-05-10T15:00:53;16.20;99.90
13684;DHT22;6914;53.552;9.908;2023-05-10T15:03:24;16.00;99.90
13684;DHT22;6914;53.552;9.908;2023-05-10T15:05:51;16.30;99.90
13684;DHT22;6914;53.552;9.908;2023-05-10T15:08:18;16.20;99.90
13684;DHT22;6914;53.552;9.908;2023-05-10T15:10:49;15.80;99.90
13684;DHT22;6914;53.552;9.908;2023-05-10T15:13:16;16.30;99.90
13684;DHT22;6914;53.552;9.908;2023-05-10T15:15:42;16.40;99.90
13684;DHT22;6914;53.552;9.908;2023-05-10T15:18:09;16.90;99.90
13684;DHT22;6914;53.552;9.908;2023-05-10T15:20:38;16.30;99.90
13684;DHT22;6914;53.552;9.908;2023-05-10T15:23:04;16.60;99.90
13684;DHT22;6914;53.552;9.908;2023-05-10T15:25:31;16.60;99.90
13684;DHT22;6914;53.552;9.908;2023-05-10T15:28:00;16.80;99.90
13684;DHT22;6914;53.552;9.908;2023-05-10T15:30:27;16.50;99.90
13684;DHT22;6914;53.552;9.908;2023-05-10T15:32:54;16.80;99.90
13684;DHT22;6914;53.552;9.908;2023-05-10T15:35:24;17.20;99.90
13684;DHT22;6914;53.552;9.908;2023-05-10T15:37:53;16.60;99.90
13684;DHT22;6914;53.552;9.908;2023-05-10T15:40:22;16.40;99.90
13684;DHT22;6914;53.552;9.908;2023-05-10T15:42:53;16.50;99.90
13684;DHT22;6914;53.552;9.908;2023-05-10T15:45:22;16.40;99.90
13684;DHT22;6914;53.552;9.908;2023-05-10T15:47:49;16.30;99.90
13684;DHT22;6914;53.552;9.908;2023-05-10T15:50:16;15.70;99.90
13684;DHT22;6914;53.552;9.908;2023-05-10T15:52:45;15.40;99.90
13684;DHT22;6914;53.552;9.908;2023-05-10T15:55:13;14.70;99.90
13684;DHT22;6914;53.552;9.908;2023-05-10T15:57:42;14.80;99.90